sensor_id;sensor_type;location;lat;lon;timestamp;P1;durP1;ratioP1;P2;durP2;ratioP2
60973;SDS011;46846;51.528;5.076;2023-08-17T00:01:25;551.28;;;524.95;;
60973;SDS011;46846;51.528;5.076;2023-08-17T00:03:50;547.47;;;521.40;;
60973;SDS011;46846;51.528;5.076;2023-08-17T00:06:16;547.13;;;521.05;;
60973;SDS011;46846;51.528;5.076;2023-08-17T00:08:41;532.03;;;506.48;;
60973;SDS011;46846;51.528;5.076;2023-08-17T00:11:07;566.92;;;539.90;;
60973;SDS011;46846;51.528;5.076;2023-08-17T00:13:33;542.70;;;516.95;;
60973;SDS011;46846;51.528;5.076;2023-08-17T00:15:58;551.63;;;525.33;;
60973;SDS011;46846;51.528;5.076;2023-08-17T00:18:24;534.97;;;509.38;;
60973;SDS011;46846;51.528;5.076;2023-08-17T00:20:49;550.20;;;523.95;;
60973;SDS011;46846;51.528;5.076;2023-08-17T00:23:14;539.65;;;513.90;;
60973;SDS011;46846;51.528;5.076;2023-08-17T00:25:40;551.95;;;525.63;;
60973;SDS011;46846;51.528;5.076;2023-08-17T00:28:05;541.63;;;515.80;;
60973;SDS011;46846;51.528;5.076;2023-08-17T00:30:31;536.05;;;510.48;;
60973;SDS011;46846;51.528;5.076;2023-08-17T00:32:56;550.03;;;523.75;;
60973;SDS011;46846;51.528;5.076;2023-08-17T00:35:21;543.63;;;517.63;;
60973;SDS011;46846;51.528;5.076;2023-08-17T00:37:47;545.30;;;519.45;;
60973;SDS011;46846;51.528;5.076;2023-08-17T00:40:12;557.90;;;531.38;;
60973;SDS011;46846;51.528;5.076;2023-08-17T00:42:38;540.33;;;514.63;;
60973;SDS011;46846;51.528;5.076;2023-08-17T00:45:03;549.63;;;523.28;;
60973;SDS011;46846;51.528;5.076;2023-08-17T00:47:29;549.03;;;522.83;;
60973;SDS011;46846;51.528;5.076;2023-08-17T00:49:55;535.90;;;510.15;;
60973;SDS011;46846;51.528;5.076;2023-08-17T00:52:23;538.70;;;512.25;;
60973;SDS011;46846;51.528;5.076;2023-08-17T00:54:49;550.78;;;524.67;;
60973;SDS011;46846;51.528;5.076;2023-08-17T00:57:14;519.15;;;494.38;;
60973;SDS011;46846;51.528;5.076;2023-08-17T00:59:40;534.70;;;509.17;;
60973;SDS011;46846;51.528;5.076;2023-08-17T01:02:05;531.92;;;506.35;;
60973;SDS011;46846;51.528;5.076;2023-08-17T01:04:32;562.63;;;535.95;;
60973;SDS011;46846;51.528;5.076;2023-08-17T01:06:57;534.95;;;509.30;;
60973;SDS011;46846;51.528;5.076;2023-08-17T01:09:22;539.15;;;513.45;;
60973;SDS011;46846;51.528;5.076;2023-08-17T01:11:49;548.28;;;522.25;;
60973;SDS011;46846;51.528;5.076;2023-08-17T01:14:24;536.88;;;511.23;;
60973;SDS011;46846;51.528;5.076;2023-08-17T01:19:31;530.85;;;505.45;;
60973;SDS011;46846;51.528;5.076;2023-08-17T01:22:03;527.88;;;502.08;;
60973;SDS011;46846;51.528;5.076;2023-08-17T01:24:30;522.17;;;496.83;;
60973;SDS011;46846;51.528;5.076;2023-08-17T01:26:55;523.35;;;498.52;;
60973;SDS011;46846;51.528;5.076;2023-08-17T01:29:21;542.60;;;516.15;;
60973;SDS011;46846;51.528;5.076;2023-08-17T01:31:50;530.88;;;505.58;;
60973;SDS011;46846;51.528;5.076;2023-08-17T01:34:18;537.50;;;511.92;;
60973;SDS011;46846;51.528;5.076;2023-08-17T01:36:46;540.45;;;514.75;;
60973;SDS011;46846;51.528;5.076;2023-08-17T01:39:17;541.00;;;514.83;;
60973;SDS011;46846;51.528;5.076;2023-08-17T01:41:45;520.60;;;495.75;;
60973;SDS011;46846;51.528;5.076;2023-08-17T01:44:12;548.65;;;522.50;;
60973;SDS011;46846;51.528;5.076;2023-08-17T01:46:38;537.60;;;512.03;;
60973;SDS011;46846;51.528;5.076;2023-08-17T01:49:04;536.05;;;510.50;;
60973;SDS011;46846;51.528;5.076;2023-08-17T01:51:29;520.13;;;495.35;;
60973;SDS011;46846;51.528;5.076;2023-08-17T01:53:55;533.33;;;507.98;;
60973;SDS011;46846;51.528;5.076;2023-08-17T01:56:20;528.42;;;503.23;;
60973;SDS011;46846;51.528;5.076;2023-08-17T01:58:46;543.05;;;516.42;;
60973;SDS011;46846;51.528;5.076;2023-08-17T02:01:11;522.33;;;497.48;;
60973;SDS011;46846;51.528;5.076;2023-08-17T02:03:36;534.60;;;509.05;;
60973;SDS011;46846;51.528;5.076;2023-08-17T02:06:02;519.35;;;494.52;;
60973;SDS011;46846;51.528;5.076;2023-08-17T02:08:27;528.42;;;503.23;;
60973;SDS011;46846;51.528;5.076;2023-08-17T02:10:53;537.80;;;512.28;;
60973;SDS011;46846;51.528;5.076;2023-08-17T02:13:18;526.90;;;501.58;;
60973;SDS011;46846;51.528;5.076;2023-08-17T02:15:44;513.03;;;488.40;;
60973;SDS011;46846;51.528;5.076;2023-08-17T02:18:11;522.28;;;497.27;;
60973;SDS011;46846;51.528;5.076;2023-08-17T02:20:36;526.45;;;501.35;;
60973;SDS011;46846;51.528;5.076;2023-08-17T02:23:02;511.90;;;487.50;;
60973;SDS011;46846;51.528;5.076;2023-08-17T02:25:27;513.60;;;488.88;;
60973;SDS011;46846;51.528;5.076;2023-08-17T02:28:00;531.95;;;506.63;;
60973;SDS011;46846;51.528;5.076;2023-08-17T02:30:26;507.55;;;483.13;;
60973;SDS011;46846;51.528;5.076;2023-08-17T02:32:51;517.80;;;492.92;;
60973;SDS011;46846;51.528;5.076;2023-08-17T02:35:17;507.90;;;483.73;;
60973;SDS011;46846;51.528;5.076;2023-08-17T02:37:42;522.45;;;497.52;;
60973;SDS011;46846;51.528;5.076;2023-08-17T02:40:07;545.80;;;519.95;;
60973;SDS011;46846;51.528;5.076;2023-08-17T02:42:33;518.72;;;493.38;;
60973;SDS011;46846;51.528;5.076;2023-08-17T02:44:59;530.05;;;504.83;;
60973;SDS011;46846;51.528;5.076;2023-08-17T02:47:24;522.03;;;497.10;;
60973;SDS011;46846;51.528;5.076;2023-08-17T02:49:49;516.17;;;491.52;;
60973;SDS011;46846;51.528;5.076;2023-08-17T02:52:15;524.17;;;499.08;;
60973;SDS011;46846;51.528;5.076;2023-08-17T02:54:40;526.55;;;501.42;;
60973;SDS011;46846;51.528;5.076;2023-08-17T02:57:06;523.45;;;498.55;;
60973;SDS011;46846;51.528;5.076;2023-08-17T02:59:31;543.17;;;517.35;;
60973;SDS011;46846;51.528;5.076;2023-08-17T03:01:56;525.03;;;499.98;;
60973;SDS011;46846;51.528;5.076;2023-08-17T03:04:22;515.75;;;491.17;;
60973;SDS011;46846;51.528;5.076;2023-08-17T03:06:48;521.72;;;496.80;;
60973;SDS011;46846;51.528;5.076;2023-08-17T03:09:13;518.25;;;493.55;;
60973;SDS011;46846;51.528;5.076;2023-08-17T03:11:38;529.10;;;503.95;;
60973;SDS011;46846;51.528;5.076;2023-08-17T03:14:04;510.77;;;486.40;;
60973;SDS011;46846;51.528;5.076;2023-08-17T03:16:29;512.65;;;488.15;;
60973;SDS011;46846;51.528;5.076;2023-08-17T03:18:55;533.63;;;507.98;;
60973;SDS011;46846;51.528;5.076;2023-08-17T03:21:21;525.47;;;500.48;;
60973;SDS011;46846;51.528;5.076;2023-08-17T03:23:47;520.35;;;495.63;;
60973;SDS011;46846;51.528;5.076;2023-08-17T03:26:13;520.38;;;495.50;;
60973;SDS011;46846;51.528;5.076;2023-08-17T03:28:38;542.80;;;516.97;;
60973;SDS011;46846;51.528;5.076;2023-08-17T03:31:04;523.55;;;498.60;;
60973;SDS011;46846;51.528;5.076;2023-08-17T03:33:29;523.15;;;498.30;;
60973;SDS011;46846;51.528;5.076;2023-08-17T03:35:55;519.15;;;494.38;;
60973;SDS011;46846;51.528;5.076;2023-08-17T03:38:20;520.83;;;495.67;;
60973;SDS011;46846;51.528;5.076;2023-08-17T03:40:46;521.47;;;496.63;;
60973;SDS011;46846;51.528;5.076;2023-08-17T03:43:12;515.28;;;490.55;;
60973;SDS011;46846;51.528;5.076;2023-08-17T03:45:38;523.92;;;498.85;;
60973;SDS011;46846;51.528;5.076;2023-08-17T03:48:05;504.65;;;480.55;;
60973;SDS011;46846;51.528;5.076;2023-08-17T03:50:32;516.10;;;491.50;;
60973;SDS011;46846;51.528;5.076;2023-08-17T03:52:57;536.92;;;511.27;;
60973;SDS011;46846;51.528;5.076;2023-08-17T03:55:23;523.13;;;498.17;;
60973;SDS011;46846;51.528;5.076;2023-08-17T03:57:48;521.47;;;496.58;;
60973;SDS011;46846;51.528;5.076;2023-08-17T04:00:13;513.63;;;489.23;;
60973;SDS011;46846;51.528;5.076;2023-08-17T04:02:39;511.85;;;487.17;;
60973;SDS011;46846;51.528;5.076;2023-08-17T04:05:04;530.47;;;505.35;;
60973;SDS011;46846;51.528;5.076;2023-08-17T04:07:30;512.20;;;487.70;;
60973;SDS011;46846;51.528;5.076;2023-08-17T04:09:56;505.27;;;481.17;;
60973;SDS011;46846;51.528;5.076;2023-08-17T04:12:21;523.67;;;498.65;;
60973;SDS011;46846;51.528;5.076;2023-08-17T04:14:46;498.45;;;474.23;;
60973;SDS011;46846;51.528;5.076;2023-08-17T04:17:12;509.63;;;485.30;;
60973;SDS011;46846;51.528;5.076;2023-08-17T04:19:37;499.88;;;475.75;;
60973;SDS011;46846;51.528;5.076;2023-08-17T04:22:03;513.40;;;488.83;;
60973;SDS011;46846;51.528;5.076;2023-08-17T04:24:28;504.90;;;480.75;;
60973;SDS011;46846;51.528;5.076;2023-08-17T04:26:54;504.30;;;480.17;;
60973;SDS011;46846;51.528;5.076;2023-08-17T04:29:20;500.70;;;476.88;;
60973;SDS011;46846;51.528;5.076;2023-08-17T04:31:45;516.17;;;491.63;;
60973;SDS011;46846;51.528;5.076;2023-08-17T04:34:10;518.40;;;493.63;;
60973;SDS011;46846;51.528;5.076;2023-08-17T04:36:36;526.00;;;500.33;;
60973;SDS011;46846;51.528;5.076;2023-08-17T04:39:01;517.83;;;493.02;;
60973;SDS011;46846;51.528;5.076;2023-08-17T04:41:29;503.60;;;479.65;;
60973;SDS011;46846;51.528;5.076;2023-08-17T04:43:55;529.13;;;503.83;;
60973;SDS011;46846;51.528;5.076;2023-08-17T04:46:20;512.53;;;487.95;;
60973;SDS011;46846;51.528;5.076;2023-08-17T04:48:45;502.10;;;477.88;;
60973;SDS011;46846;51.528;5.076;2023-08-17T04:51:11;503.77;;;479.55;;
60973;SDS011;46846;51.528;5.076;2023-08-17T04:53:36;509.27;;;484.95;;
60973;SDS011;46846;51.528;5.076;2023-08-17T04:56:02;520.13;;;495.42;;
60973;SDS011;46846;51.528;5.076;2023-08-17T04:58:28;502.48;;;478.45;;
60973;SDS011;46846;51.528;5.076;2023-08-17T05:00:54;491.55;;;468.05;;
60973;SDS011;46846;51.528;5.076;2023-08-17T05:03:19;507.50;;;482.95;;
60973;SDS011;46846;51.528;5.076;2023-08-17T05:05:45;497.95;;;474.15;;
60973;SDS011;46846;51.528;5.076;2023-08-17T05:08:10;490.05;;;466.50;;
60973;SDS011;46846;51.528;5.076;2023-08-17T05:10:36;495.67;;;472.02;;
60973;SDS011;46846;51.528;5.076;2023-08-17T05:13:01;527.92;;;502.75;;
60973;SDS011;46846;51.528;5.076;2023-08-17T05:15:26;514.92;;;490.40;;
60973;SDS011;46846;51.528;5.076;2023-08-17T05:17:52;492.48;;;468.83;;
60973;SDS011;46846;51.528;5.076;2023-08-17T05:20:17;496.60;;;472.80;;
60973;SDS011;46846;51.528;5.076;2023-08-17T05:22:45;490.48;;;466.75;;
60973;SDS011;46846;51.528;5.076;2023-08-17T05:25:10;513.13;;;488.40;;
60973;SDS011;46846;51.528;5.076;2023-08-17T05:27:36;482.52;;;459.27;;
60973;SDS011;46846;51.528;5.076;2023-08-17T05:30:01;495.55;;;471.48;;
60973;SDS011;46846;51.528;5.076;2023-08-17T05:32:26;505.98;;;481.58;;
60973;SDS011;46846;51.528;5.076;2023-08-17T05:34:52;504.15;;;479.88;;
60973;SDS011;46846;51.528;5.076;2023-08-17T05:37:17;486.45;;;462.98;;
60973;SDS011;46846;51.528;5.076;2023-08-17T05:39:43;492.98;;;469.25;;
60973;SDS011;46846;51.528;5.076;2023-08-17T05:42:08;499.10;;;475.30;;
60973;SDS011;46846;51.528;5.076;2023-08-17T05:44:34;493.77;;;470.17;;
60973;SDS011;46846;51.528;5.076;2023-08-17T05:47:00;486.75;;;463.25;;
60973;SDS011;46846;51.528;5.076;2023-08-17T05:49:25;504.42;;;480.15;;
60973;SDS011;46846;51.528;5.076;2023-08-17T05:51:51;486.05;;;462.75;;
60973;SDS011;46846;51.528;5.076;2023-08-17T05:54:16;503.73;;;479.60;;
60973;SDS011;46846;51.528;5.076;2023-08-17T05:56:42;495.85;;;472.02;;
60973;SDS011;46846;51.528;5.076;2023-08-17T05:59:11;479.08;;;455.92;;
60973;SDS011;46846;51.528;5.076;2023-08-17T06:01:37;482.23;;;458.92;;
60973;SDS011;46846;51.528;5.076;2023-08-17T06:04:03;491.88;;;467.77;;
60973;SDS011;46846;51.528;5.076;2023-08-17T06:06:28;490.38;;;466.73;;
60973;SDS011;46846;51.528;5.076;2023-08-17T06:08:54;500.15;;;474.50;;
60973;SDS011;46846;51.528;5.076;2023-08-17T06:11:19;494.00;;;470.17;;
60973;SDS011;46846;51.528;5.076;2023-08-17T06:13:45;483.65;;;460.40;;
60973;SDS011;46846;51.528;5.076;2023-08-17T06:16:10;510.65;;;486.08;;
60973;SDS011;46846;51.528;5.076;2023-08-17T06:18:36;495.02;;;470.70;;
60973;SDS011;46846;51.528;5.076;2023-08-17T06:21:02;503.27;;;478.63;;
60973;SDS011;46846;51.528;5.076;2023-08-17T06:23:27;511.25;;;486.25;;
60973;SDS011;46846;51.528;5.076;2023-08-17T06:25:56;495.80;;;471.73;;
60973;SDS011;46846;51.528;5.076;2023-08-17T06:28:23;490.45;;;466.80;;
60973;SDS011;46846;51.528;5.076;2023-08-17T06:30:51;494.20;;;469.63;;
60973;SDS011;46846;51.528;5.076;2023-08-17T06:33:20;479.25;;;455.95;;
60973;SDS011;46846;51.528;5.076;2023-08-17T06:35:46;485.88;;;462.40;;
60973;SDS011;46846;51.528;5.076;2023-08-17T06:38:11;490.67;;;466.98;;
60973;SDS011;46846;51.528;5.076;2023-08-17T06:40:37;480.75;;;457.58;;
60973;SDS011;46846;51.528;5.076;2023-08-17T06:43:02;485.52;;;462.25;;
60973;SDS011;46846;51.528;5.076;2023-08-17T06:45:28;483.35;;;459.30;;
60973;SDS011;46846;51.528;5.076;2023-08-17T06:47:54;490.48;;;466.52;;
60973;SDS011;46846;51.528;5.076;2023-08-17T06:50:19;491.60;;;467.90;;
60973;SDS011;46846;51.528;5.076;2023-08-17T06:52:44;478.10;;;455.08;;
60973;SDS011;46846;51.528;5.076;2023-08-17T06:55:10;488.40;;;464.92;;
60973;SDS011;46846;51.528;5.076;2023-08-17T06:57:35;488.88;;;465.38;;
60973;SDS011;46846;51.528;5.076;2023-08-17T07:00:01;478.98;;;455.63;;
60973;SDS011;46846;51.528;5.076;2023-08-17T07:02:27;496.13;;;472.33;;
60973;SDS011;46846;51.528;5.076;2023-08-17T07:04:53;477.05;;;454.00;;
60973;SDS011;46846;51.528;5.076;2023-08-17T07:07:18;486.85;;;463.15;;
60973;SDS011;46846;51.528;5.076;2023-08-17T07:09:43;484.10;;;460.60;;
60973;SDS011;46846;51.528;5.076;2023-08-17T07:12:09;486.90;;;463.35;;
60973;SDS011;46846;51.528;5.076;2023-08-17T07:14:34;476.75;;;453.67;;
60973;SDS011;46846;51.528;5.076;2023-08-17T07:16:59;490.05;;;466.45;;
60973;SDS011;46846;51.528;5.076;2023-08-17T07:19:25;491.73;;;467.15;;
60973;SDS011;46846;51.528;5.076;2023-08-17T07:21:50;478.88;;;455.63;;
60973;SDS011;46846;51.528;5.076;2023-08-17T07:24:16;500.73;;;476.13;;
60973;SDS011;46846;51.528;5.076;2023-08-17T07:26:41;489.83;;;466.23;;
60973;SDS011;46846;51.528;5.076;2023-08-17T07:29:07;481.95;;;458.75;;
60973;SDS011;46846;51.528;5.076;2023-08-17T07:31:33;484.25;;;460.92;;
60973;SDS011;46846;51.528;5.076;2023-08-17T07:33:59;486.73;;;463.00;;
60973;SDS011;46846;51.528;5.076;2023-08-17T07:36:25;492.98;;;469.05;;
60973;SDS011;46846;51.528;5.076;2023-08-17T07:38:50;490.83;;;467.23;;
60973;SDS011;46846;51.528;5.076;2023-08-17T07:41:15;477.45;;;454.15;;
60973;SDS011;46846;51.528;5.076;2023-08-17T07:43:41;474.70;;;451.67;;
60973;SDS011;46846;51.528;5.076;2023-08-17T07:46:06;478.55;;;455.45;;
60973;SDS011;46846;51.528;5.076;2023-08-17T07:48:32;487.10;;;463.55;;
60973;SDS011;46846;51.528;5.076;2023-08-17T07:50:58;476.50;;;453.35;;
60973;SDS011;46846;51.528;5.076;2023-08-17T07:53:24;491.20;;;467.67;;
60973;SDS011;46846;51.528;5.076;2023-08-17T07:55:49;488.30;;;464.73;;
60973;SDS011;46846;51.528;5.076;2023-08-17T07:58:15;482.83;;;459.58;;
60973;SDS011;46846;51.528;5.076;2023-08-17T08:00:40;485.20;;;461.92;;
60973;SDS011;46846;51.528;5.076;2023-08-17T08:03:06;493.10;;;469.23;;
60973;SDS011;46846;51.528;5.076;2023-08-17T08:05:31;485.27;;;461.80;;
60973;SDS011;46846;51.528;5.076;2023-08-17T08:07:56;480.30;;;457.05;;
60973;SDS011;46846;51.528;5.076;2023-08-17T08:10:22;503.90;;;479.40;;
60973;SDS011;46846;51.528;5.076;2023-08-17T08:12:47;483.30;;;460.05;;
60973;SDS011;46846;51.528;5.076;2023-08-17T08:15:13;479.83;;;456.63;;
60973;SDS011;46846;51.528;5.076;2023-08-17T08:17:38;505.38;;;480.92;;
60973;SDS011;46846;51.528;5.076;2023-08-17T08:20:04;485.30;;;461.75;;
60973;SDS011;46846;51.528;5.076;2023-08-17T08:22:30;484.02;;;460.48;;
60973;SDS011;46846;51.528;5.076;2023-08-17T08:24:55;495.35;;;471.23;;
60973;SDS011;46846;51.528;5.076;2023-08-17T08:27:21;502.40;;;478.30;;
60973;SDS011;46846;51.528;5.076;2023-08-17T08:29:46;483.63;;;460.25;;
60973;SDS011;46846;51.528;5.076;2023-08-17T08:32:12;493.83;;;470.20;;
60973;SDS011;46846;51.528;5.076;2023-08-17T08:34:37;504.63;;;480.48;;
60973;SDS011;46846;51.528;5.076;2023-08-17T08:37:03;487.55;;;464.15;;
60973;SDS011;46846;51.528;5.076;2023-08-17T08:39:28;493.42;;;469.67;;
60973;SDS011;46846;51.528;5.076;2023-08-17T08:41:54;503.98;;;479.65;;
60973;SDS011;46846;51.528;5.076;2023-08-17T08:44:20;502.08;;;477.85;;
60973;SDS011;46846;51.528;5.076;2023-08-17T08:46:45;498.10;;;473.42;;
60973;SDS011;46846;51.528;5.076;2023-08-17T08:49:11;507.77;;;483.45;;
60973;SDS011;46846;51.528;5.076;2023-08-17T08:51:43;502.33;;;478.15;;
60973;SDS011;46846;51.528;5.076;2023-08-17T08:54:14;504.80;;;480.35;;
60973;SDS011;46846;51.528;5.076;2023-08-17T08:56:45;497.40;;;473.10;;
60973;SDS011;46846;51.528;5.076;2023-08-17T08:59:14;504.55;;;480.08;;
60973;SDS011;46846;51.528;5.076;2023-08-17T09:01:41;503.50;;;478.83;;
60973;SDS011;46846;51.528;5.076;2023-08-17T09:04:07;489.08;;;465.52;;
60973;SDS011;46846;51.528;5.076;2023-08-17T09:06:34;499.10;;;474.98;;
60973;SDS011;46846;51.528;5.076;2023-08-17T09:09:00;489.27;;;465.83;;
60973;SDS011;46846;51.528;5.076;2023-08-17T09:11:27;484.80;;;461.40;;
60973;SDS011;46846;51.528;5.076;2023-08-17T09:13:53;493.08;;;469.13;;
60973;SDS011;46846;51.528;5.076;2023-08-17T09:16:19;494.52;;;470.20;;
60973;SDS011;46846;51.528;5.076;2023-08-17T09:18:45;511.65;;;486.60;;
60973;SDS011;46846;51.528;5.076;2023-08-17T09:21:20;489.88;;;466.13;;
60973;SDS011;46846;51.528;5.076;2023-08-17T09:23:54;496.48;;;472.30;;
60973;SDS011;46846;51.528;5.076;2023-08-17T09:26:20;485.23;;;460.38;;
60973;SDS011;46846;51.528;5.076;2023-08-17T09:28:50;496.67;;;472.67;;
60973;SDS011;46846;51.528;5.076;2023-08-17T09:31:16;496.60;;;472.58;;
60973;SDS011;46846;51.528;5.076;2023-08-17T09:33:48;500.13;;;476.08;;
60973;SDS011;46846;51.528;5.076;2023-08-17T09:36:14;506.75;;;482.02;;
60973;SDS011;46846;51.528;5.076;2023-08-17T09:38:40;486.88;;;463.23;;
60973;SDS011;46846;51.528;5.076;2023-08-17T09:41:06;491.98;;;468.08;;
60973;SDS011;46846;51.528;5.076;2023-08-17T09:43:31;485.58;;;460.92;;
60973;SDS011;46846;51.528;5.076;2023-08-17T09:45:58;495.38;;;471.40;;
60973;SDS011;46846;51.528;5.076;2023-08-17T09:48:26;502.23;;;477.85;;
60973;SDS011;46846;51.528;5.076;2023-08-17T09:50:53;497.95;;;473.90;;
60973;SDS011;46846;51.528;5.076;2023-08-17T09:53:21;500.02;;;475.52;;
60973;SDS011;46846;51.528;5.076;2023-08-17T09:55:47;494.83;;;470.25;;
60973;SDS011;46846;51.528;5.076;2023-08-17T09:58:13;493.25;;;469.15;;
60973;SDS011;46846;51.528;5.076;2023-08-17T10:00:45;501.23;;;476.70;;
60973;SDS011;46846;51.528;5.076;2023-08-17T10:03:13;508.27;;;483.67;;
60973;SDS011;46846;51.528;5.076;2023-08-17T10:05:39;493.67;;;469.83;;
60973;SDS011;46846;51.528;5.076;2023-08-17T10:08:07;508.75;;;484.35;;
60973;SDS011;46846;51.528;5.076;2023-08-17T10:10:34;484.38;;;461.02;;
60973;SDS011;46846;51.528;5.076;2023-08-17T10:15:31;494.02;;;469.98;;
60973;SDS011;46846;51.528;5.076;2023-08-17T10:18:08;493.20;;;468.90;;
60973;SDS011;46846;51.528;5.076;2023-08-17T10:20:40;499.95;;;475.70;;
60973;SDS011;46846;51.528;5.076;2023-08-17T10:23:12;502.45;;;477.80;;
60973;SDS011;46846;51.528;5.076;2023-08-17T10:25:42;491.83;;;468.10;;
60973;SDS011;46846;51.528;5.076;2023-08-17T10:28:11;505.95;;;480.83;;
60973;SDS011;46846;51.528;5.076;2023-08-17T10:30:37;494.02;;;469.90;;
60973;SDS011;46846;51.528;5.076;2023-08-17T10:33:05;519.80;;;494.38;;
60973;SDS011;46846;51.528;5.076;2023-08-17T10:35:31;493.92;;;469.30;;
60973;SDS011;46846;51.528;5.076;2023-08-17T10:37:58;508.92;;;483.80;;
60973;SDS011;46846;51.528;5.076;2023-08-17T10:40:27;499.35;;;475.08;;
60973;SDS011;46846;51.528;5.076;2023-08-17T10:42:54;505.92;;;481.23;;
60973;SDS011;46846;51.528;5.076;2023-08-17T10:45:26;497.33;;;473.30;;
60973;SDS011;46846;51.528;5.076;2023-08-17T10:47:59;512.80;;;487.90;;
60973;SDS011;46846;51.528;5.076;2023-08-17T10:50:58;492.65;;;468.58;;
60973;SDS011;46846;51.528;5.076;2023-08-17T10:53:25;502.15;;;477.95;;
60973;SDS011;46846;51.528;5.076;2023-08-17T10:55:50;512.75;;;487.70;;
60973;SDS011;46846;51.528;5.076;2023-08-17T10:58:22;499.27;;;475.13;;
60973;SDS011;46846;51.528;5.076;2023-08-17T11:00:48;518.90;;;493.77;;
60973;SDS011;46846;51.528;5.076;2023-08-17T11:03:20;504.60;;;479.80;;
60973;SDS011;46846;51.528;5.076;2023-08-17T11:05:50;510.33;;;485.75;;
60973;SDS011;46846;51.528;5.076;2023-08-17T11:11:11;516.58;;;491.23;;
60973;SDS011;46846;51.528;5.076;2023-08-17T11:13:39;508.23;;;483.48;;
60973;SDS011;46846;51.528;5.076;2023-08-17T11:16:08;517.88;;;492.52;;
60973;SDS011;46846;51.528;5.076;2023-08-17T11:18:35;512.22;;;487.23;;
60973;SDS011;46846;51.528;5.076;2023-08-17T11:21:04;523.85;;;498.48;;
60973;SDS011;46846;51.528;5.076;2023-08-17T11:23:31;520.67;;;495.42;;
60973;SDS011;46846;51.528;5.076;2023-08-17T11:25:58;510.17;;;485.02;;
60973;SDS011;46846;51.528;5.076;2023-08-17T11:28:24;509.70;;;484.98;;
60973;SDS011;46846;51.528;5.076;2023-08-17T11:30:57;509.88;;;485.27;;
60973;SDS011;46846;51.528;5.076;2023-08-17T11:33:24;500.38;;;476.27;;
60973;SDS011;46846;51.528;5.076;2023-08-17T11:35:50;518.90;;;493.95;;
60973;SDS011;46846;51.528;5.076;2023-08-17T11:38:16;520.90;;;495.75;;
60973;SDS011;46846;51.528;5.076;2023-08-17T11:40:41;522.63;;;497.38;;
60973;SDS011;46846;51.528;5.076;2023-08-17T11:43:07;513.45;;;488.42;;
60973;SDS011;46846;51.528;5.076;2023-08-17T11:45:33;521.88;;;496.70;;
60973;SDS011;46846;51.528;5.076;2023-08-17T11:47:59;507.73;;;483.08;;
60973;SDS011;46846;51.528;5.076;2023-08-17T11:50:24;516.90;;;491.65;;
60973;SDS011;46846;51.528;5.076;2023-08-17T11:52:50;510.77;;;485.67;;
60973;SDS011;46846;51.528;5.076;2023-08-17T11:55:16;518.03;;;492.90;;
60973;SDS011;46846;51.528;5.076;2023-08-17T11:57:45;515.92;;;490.65;;
60973;SDS011;46846;51.528;5.076;2023-08-17T12:00:16;514.40;;;489.50;;
60973;SDS011;46846;51.528;5.076;2023-08-17T12:02:48;510.90;;;485.85;;
60973;SDS011;46846;51.528;5.076;2023-08-17T12:05:21;521.75;;;496.23;;
60973;SDS011;46846;51.528;5.076;2023-08-17T12:07:48;516.70;;;491.77;;
60973;SDS011;46846;51.528;5.076;2023-08-17T12:10:34;503.77;;;478.88;;
60973;SDS011;46846;51.528;5.076;2023-08-17T12:13:02;502.42;;;477.88;;
60973;SDS011;46846;51.528;5.076;2023-08-17T12:15:34;517.97;;;492.73;;
60973;SDS011;46846;51.528;5.076;2023-08-17T12:18:01;511.80;;;486.95;;
60973;SDS011;46846;51.528;5.076;2023-08-17T12:20:28;517.97;;;492.60;;
60973;SDS011;46846;51.528;5.076;2023-08-17T12:22:56;519.05;;;494.00;;
60973;SDS011;46846;51.528;5.076;2023-08-17T12:25:23;503.13;;;478.58;;
60973;SDS011;46846;51.528;5.076;2023-08-17T12:27:48;518.03;;;492.45;;
60973;SDS011;46846;51.528;5.076;2023-08-17T12:30:25;508.85;;;483.92;;
60973;SDS011;46846;51.528;5.076;2023-08-17T12:32:56;499.73;;;475.17;;
60973;SDS011;46846;51.528;5.076;2023-08-17T12:35:22;511.73;;;486.77;;
60973;SDS011;46846;51.528;5.076;2023-08-17T12:37:50;520.10;;;494.58;;
60973;SDS011;46846;51.528;5.076;2023-08-17T12:40:18;515.10;;;490.00;;
60973;SDS011;46846;51.528;5.076;2023-08-17T12:42:45;512.10;;;486.98;;
60973;SDS011;46846;51.528;5.076;2023-08-17T12:45:10;520.53;;;494.63;;
60973;SDS011;46846;51.528;5.076;2023-08-17T12:47:36;515.85;;;490.65;;
60973;SDS011;46846;51.528;5.076;2023-08-17T12:50:02;502.35;;;477.63;;
60973;SDS011;46846;51.528;5.076;2023-08-17T12:52:28;514.47;;;489.05;;
60973;SDS011;46846;51.528;5.076;2023-08-17T12:54:54;515.92;;;490.73;;
60973;SDS011;46846;51.528;5.076;2023-08-17T12:57:19;503.20;;;478.75;;
60973;SDS011;46846;51.528;5.076;2023-08-17T12:59:45;509.20;;;484.55;;
60973;SDS011;46846;51.528;5.076;2023-08-17T13:02:10;521.22;;;494.75;;
60973;SDS011;46846;51.528;5.076;2023-08-17T13:04:36;509.35;;;484.70;;
60973;SDS011;46846;51.528;5.076;2023-08-17T13:07:01;517.75;;;492.80;;
60973;SDS011;46846;51.528;5.076;2023-08-17T13:09:27;522.75;;;497.52;;
60973;SDS011;46846;51.528;5.076;2023-08-17T13:11:52;527.35;;;501.95;;
60973;SDS011;46846;51.528;5.076;2023-08-17T13:14:18;532.85;;;507.15;;
60973;SDS011;46846;51.528;5.076;2023-08-17T13:16:43;498.98;;;474.23;;
60973;SDS011;46846;51.528;5.076;2023-08-17T13:19:09;521.75;;;496.35;;
60973;SDS011;46846;51.528;5.076;2023-08-17T13:21:34;518.58;;;493.60;;
60973;SDS011;46846;51.528;5.076;2023-08-17T13:23:59;520.60;;;495.17;;
60973;SDS011;46846;51.528;5.076;2023-08-17T13:26:25;511.15;;;486.30;;
60973;SDS011;46846;51.528;5.076;2023-08-17T13:28:50;520.75;;;495.20;;
60973;SDS011;46846;51.528;5.076;2023-08-17T13:31:16;526.47;;;501.00;;
60973;SDS011;46846;51.528;5.076;2023-08-17T13:33:41;529.13;;;503.20;;
60973;SDS011;46846;51.528;5.076;2023-08-17T13:36:06;521.92;;;495.85;;
60973;SDS011;46846;51.528;5.076;2023-08-17T13:38:32;512.10;;;486.27;;
60973;SDS011;46846;51.528;5.076;2023-08-17T13:40:57;523.67;;;498.30;;
60973;SDS011;46846;51.528;5.076;2023-08-17T13:43:23;502.02;;;477.10;;
60973;SDS011;46846;51.528;5.076;2023-08-17T13:45:48;520.38;;;495.17;;
60973;SDS011;46846;51.528;5.076;2023-08-17T13:48:14;535.80;;;510.15;;
60973;SDS011;46846;51.528;5.076;2023-08-17T13:50:39;501.20;;;476.95;;
60973;SDS011;46846;51.528;5.076;2023-08-17T13:53:05;514.97;;;489.30;;
60973;SDS011;46846;51.528;5.076;2023-08-17T13:55:30;515.15;;;490.10;;
60973;SDS011;46846;51.528;5.076;2023-08-17T13:57:57;510.67;;;485.98;;
60973;SDS011;46846;51.528;5.076;2023-08-17T14:00:23;523.90;;;498.38;;